createdAt,value
2023-03-07T00:00:17.302Z,0.90
2023-03-07T00:02:44.379Z,0.90
2023-03-07T00:05:11.316Z,0.90
2023-03-07T00:07:40.036Z,0.77
2023-03-07T00:10:07.620Z,0.70
2023-03-07T00:12:34.548Z,0.93
2023-03-07T00:15:01.535Z,0.75
2023-03-07T00:17:30.070Z,0.80
2023-03-07T00:19:56.997Z,0.70
2023-03-07T00:22:23.975Z,0.80
2023-03-07T00:24:50.857Z,0.88
2023-03-07T00:27:17.926Z,0.80
2023-03-07T00:29:48.517Z,0.63
2023-03-07T00:32:15.484Z,0.70
2023-03-07T00:34:42.491Z,0.95
2023-03-07T00:37:09.755Z,0.80
2023-03-07T00:39:36.754Z,0.88
2023-03-07T00:42:03.922Z,0.80
2023-03-07T00:44:32.604Z,0.70
2023-03-07T00:46:59.703Z,0.93
2023-03-07T00:49:27.112Z,0.88
2023-03-07T00:51:54.219Z,0.85
2023-03-07T00:54:21.169Z,0.85
2023-03-07T00:56:48.308Z,0.80
2023-03-07T01:01:56.341Z,0.63
2023-03-07T01:04:23.409Z,0.80
2023-03-07T01:06:50.885Z,0.95
2023-03-07T01:09:21.421Z,0.70
2023-03-07T01:11:49.774Z,0.80
2023-03-07T01:14:17.626Z,0.80
2023-03-07T01:16:44.721Z,0.70
2023-03-07T01:19:12.868Z,0.88
2023-03-07T01:21:42.433Z,0.82
2023-03-07T01:24:15.375Z,0.80
2023-03-07T01:26:43.240Z,0.85
2023-03-07T01:29:11.361Z,0.95
2023-03-07T01:31:38.740Z,0.73
2023-03-07T01:34:06.126Z,0.90
2023-03-07T01:36:36.239Z,0.77
2023-03-07T01:39:10.656Z,0.70
2023-03-07T01:41:42.049Z,1.00
2023-03-07T01:44:25.138Z,0.80
2023-03-07T01:46:53.672Z,0.70
2023-03-07T01:49:27.639Z,0.85
2023-03-07T01:52:13.614Z,0.70
2023-03-07T01:54:53.464Z,0.88
2023-03-07T01:57:27.368Z,0.70
2023-03-07T02:00:00.325Z,0.68
2023-03-07T02:02:29.471Z,0.70
2023-03-07T02:05:16.519Z,0.90
2023-03-07T02:07:50.640Z,0.90
2023-03-07T02:10:23.004Z,0.88
2023-03-07T02:12:51.286Z,0.80
2023-03-07T02:15:18.446Z,0.90
2023-03-07T02:17:45.922Z,0.70
2023-03-07T02:21:09.490Z,0.70
2023-03-07T02:23:53.619Z,0.70
2023-03-07T02:26:32.604Z,0.80
2023-03-07T02:29:01.001Z,0.80
2023-03-07T02:31:28.926Z,0.70
2023-03-07T02:33:55.993Z,0.70
2023-03-07T02:36:26.878Z,0.70
2023-03-07T02:39:11.849Z,0.98
2023-03-07T02:41:40.546Z,0.90
2023-03-07T02:44:19.414Z,0.90
2023-03-07T02:46:49.577Z,0.75
2023-03-07T02:49:18.166Z,0.80
2023-03-07T02:54:31.671Z,0.80
2023-03-07T02:56:59.198Z,0.98
2023-03-07T02:59:26.335Z,0.90
2023-03-07T03:01:57.548Z,0.95
2023-03-07T03:04:24.649Z,0.70
2023-03-07T03:06:51.726Z,0.80
2023-03-07T03:09:20.145Z,0.90
2023-03-07T03:11:47.537Z,0.90
2023-03-07T03:14:16.096Z,0.70
2023-03-07T03:16:43.024Z,0.85
2023-03-07T03:19:10.518Z,0.80
2023-03-07T03:21:37.723Z,0.70
2023-03-07T03:24:08.861Z,0.90
2023-03-07T03:26:36.956Z,0.85
2023-03-07T03:29:05.457Z,0.90
2023-03-07T03:31:33.496Z,0.80
2023-03-07T03:34:02.420Z,0.70
2023-03-07T03:36:30.017Z,0.80
2023-03-07T03:39:02.126Z,0.80
2023-03-07T03:41:30.067Z,0.90
2023-03-07T03:43:57.674Z,0.80
2023-03-07T03:46:26.650Z,1.00
2023-03-07T03:48:57.219Z,0.70
2023-03-07T03:51:32.448Z,0.70
2023-03-07T03:53:59.829Z,0.80
2023-03-07T03:56:28.087Z,0.70
2023-03-07T03:58:56.503Z,0.80
2023-03-07T04:01:27.193Z,0.80
2023-03-07T04:03:55.019Z,0.90
2023-03-07T04:06:25.364Z,0.90
2023-03-07T04:08:53.182Z,0.90
2023-03-07T04:11:22.559Z,0.82
2023-03-07T04:13:50.194Z,0.90
2023-03-07T04:16:18.420Z,0.85
2023-03-07T04:18:45.677Z,0.88
2023-03-07T04:21:13.102Z,0.98
2023-03-07T04:23:41.737Z,0.93
2023-03-07T04:26:10.419Z,0.93
2023-03-07T04:28:46.263Z,0.90
2023-03-07T04:31:20.368Z,0.75
2023-03-07T04:33:49.410Z,0.98
2023-03-07T04:36:17.131Z,0.93
2023-03-07T04:38:46.726Z,0.70
2023-03-07T04:41:18.946Z,0.80
2023-03-07T04:43:47.886Z,0.75
2023-03-07T04:46:16.073Z,0.80
2023-03-07T04:48:43.377Z,0.90
2023-03-07T04:51:13.327Z,0.90
2023-03-07T04:53:40.840Z,0.90
2023-03-07T04:56:09.595Z,0.90
2023-03-07T04:58:37.855Z,0.90
2023-03-07T05:01:05.571Z,0.95
2023-03-07T05:03:34.197Z,0.90
2023-03-07T05:06:06.779Z,0.77
2023-03-07T05:08:36.383Z,0.90
2023-03-07T05:11:05.539Z,1.00
2023-03-07T05:13:33.095Z,0.90
2023-03-07T05:16:00.356Z,1.00
2023-03-07T05:18:28.568Z,0.90
2023-03-07T05:20:57.641Z,0.90
2023-03-07T05:23:26.515Z,0.90
2023-03-07T05:25:54.619Z,0.85
2023-03-07T05:28:21.666Z,0.90
2023-03-07T05:30:51.512Z,0.80
2023-03-07T05:33:18.578Z,0.75
2023-03-07T05:35:49.273Z,1.25
2023-03-07T05:38:17.950Z,0.90
2023-03-07T05:40:46.124Z,0.80
2023-03-07T05:43:17.216Z,0.70
2023-03-07T05:45:44.385Z,0.82
2023-03-07T05:48:11.318Z,0.75
2023-03-07T05:50:39.628Z,0.90
2023-03-07T05:53:06.723Z,0.70
2023-03-07T05:55:34.663Z,0.80
2023-03-07T05:58:02.941Z,0.77
2023-03-07T06:00:30.365Z,0.80
2023-03-07T06:03:04.068Z,0.70
2023-03-07T06:05:32.677Z,0.88
2023-03-07T06:08:02.754Z,0.90
2023-03-07T06:10:29.762Z,0.90
2023-03-07T06:12:57.363Z,0.80
2023-03-07T06:15:24.869Z,0.85
2023-03-07T06:18:01.845Z,0.80
2023-03-07T06:20:32.414Z,0.80
2023-03-07T06:23:02.425Z,0.70
2023-03-07T06:25:29.901Z,1.00
2023-03-07T06:28:01.000Z,0.80
2023-03-07T06:30:30.409Z,0.70
2023-03-07T06:32:57.434Z,0.90
2023-03-07T06:35:24.575Z,1.00
2023-03-07T06:37:51.766Z,0.98
2023-03-07T06:40:21.456Z,0.90
2023-03-07T06:42:48.452Z,0.80
2023-03-07T06:45:22.773Z,0.90
2023-03-07T06:47:50.061Z,1.00
2023-03-07T06:50:29.855Z,0.77
2023-03-07T06:53:02.258Z,0.95
2023-03-07T06:55:29.611Z,0.93
2023-03-07T06:57:56.808Z,0.90
2023-03-07T07:00:23.903Z,0.80
2023-03-07T07:02:51.182Z,0.70
2023-03-07T07:05:18.320Z,1.00
2023-03-07T07:07:46.182Z,1.00
2023-03-07T07:10:13.663Z,0.95
2023-03-07T07:12:40.793Z,0.70
2023-03-07T07:15:08.665Z,0.90
2023-03-07T07:17:36.066Z,1.10
2023-03-07T07:20:05.484Z,0.82
2023-03-07T07:22:34.515Z,1.05
2023-03-07T07:25:01.471Z,0.90
2023-03-07T07:27:30.243Z,0.90
2023-03-07T07:29:57.334Z,0.95
2023-03-07T07:32:24.437Z,0.70
2023-03-07T07:34:51.962Z,1.13
2023-03-07T07:37:19.215Z,1.00
2023-03-07T07:39:46.143Z,1.05
2023-03-07T07:42:13.252Z,0.77
2023-03-07T07:44:52.865Z,1.10
2023-03-07T07:47:21.450Z,0.90
2023-03-07T07:49:48.614Z,0.82
2023-03-07T07:52:15.863Z,0.95
2023-03-07T07:54:42.949Z,1.20
2023-03-07T07:57:10.286Z,1.00
2023-03-07T07:59:37.573Z,0.98
2023-03-07T08:02:07.227Z,0.85
2023-03-07T08:04:35.695Z,1.00
2023-03-07T08:07:02.734Z,1.10
2023-03-07T08:09:29.741Z,1.10
2023-03-07T08:11:56.731Z,1.10
2023-03-07T08:14:26.824Z,0.90
2023-03-07T08:16:53.762Z,1.00
2023-03-07T08:19:23.454Z,1.40
2023-03-07T08:21:54.598Z,1.35
2023-03-07T08:24:38.602Z,1.42
2023-03-07T08:27:07.137Z,1.48
2023-03-07T08:29:35.380Z,1.48
2023-03-07T08:32:02.427Z,1.50
2023-03-07T08:34:32.127Z,1.30
2023-03-07T08:36:59.064Z,1.42
2023-03-07T08:39:26.292Z,1.45
2023-03-07T08:41:55.432Z,1.40
2023-03-07T08:44:22.484Z,1.40
2023-03-07T08:46:49.718Z,1.40
2023-03-07T08:49:19.357Z,1.15
2023-03-07T08:51:49.256Z,1.40
2023-03-07T08:54:18.145Z,1.38
2023-03-07T08:56:51.176Z,1.40
2023-03-07T08:59:18.426Z,1.60
2023-03-07T09:01:47.720Z,1.50
2023-03-07T09:04:14.731Z,1.45
2023-03-07T09:06:41.635Z,1.40
2023-03-07T09:09:08.832Z,1.30
2023-03-07T09:11:37.197Z,1.50
2023-03-07T09:14:04.199Z,1.50
2023-03-07T09:16:31.795Z,1.50
2023-03-07T09:19:01.943Z,1.35
2023-03-07T09:21:29.314Z,1.50
2023-03-07T09:24:04.384Z,1.40
2023-03-07T09:26:31.539Z,1.50
2023-03-07T09:28:58.594Z,1.42
2023-03-07T09:31:27.881Z,1.50
2023-03-07T09:33:57.492Z,1.60
2023-03-07T09:36:24.668Z,1.38
2023-03-07T09:38:51.688Z,1.40
2023-03-07T09:41:30.950Z,1.50
2023-03-07T09:44:39.901Z,1.45
2023-03-07T09:47:49.312Z,1.40
2023-03-07T09:50:27.952Z,1.50
2023-03-07T09:52:58.541Z,1.40
2023-03-07T09:55:25.563Z,1.40
2023-03-07T09:57:56.244Z,1.60
2023-03-07T10:00:46.145Z,1.50
2023-03-07T10:03:40.728Z,1.20
2023-03-07T10:06:18.628Z,1.50
2023-03-07T10:08:45.848Z,1.33
2023-03-07T10:11:45.816Z,1.50
2023-03-07T10:14:31.729Z,1.50
2023-03-07T10:17:11.602Z,1.40
2023-03-07T10:19:46.960Z,1.48
2023-03-07T10:22:42.940Z,1.40
2023-03-07T10:25:45.019Z,1.30
2023-03-07T10:28:23.287Z,0.90
2023-03-07T10:30:52.585Z,1.00
2023-03-07T10:33:23.364Z,1.60
2023-03-07T10:36:24.677Z,1.60
2023-03-07T10:39:21.208Z,1.20
2023-03-07T10:41:48.286Z,1.30
2023-03-07T10:44:18.601Z,1.30
2023-03-07T10:46:55.368Z,1.10
2023-03-07T10:49:44.866Z,1.30
2023-03-07T10:52:25.190Z,1.30
2023-03-07T10:54:52.438Z,1.40
2023-03-07T10:57:22.720Z,1.20
2023-03-07T10:59:50.301Z,1.20
2023-03-07T11:02:30.776Z,1.30
2023-03-07T11:04:58.488Z,1.10
2023-03-07T11:07:36.861Z,1.10
2023-03-07T11:10:34.884Z,1.10
2023-03-07T11:13:16.587Z,1.10
2023-03-07T11:15:45.367Z,1.08
2023-03-07T11:18:51.209Z,1.10
2023-03-07T11:21:36.482Z,1.13
2023-03-07T11:26:40.335Z,1.10
2023-03-07T11:29:12.752Z,1.00
2023-03-07T11:31:58.367Z,1.00
2023-03-07T11:34:33.523Z,1.00
2023-03-07T11:37:23.783Z,1.00
2023-03-07T11:40:25.493Z,1.00
2023-03-07T11:43:14.098Z,1.00
2023-03-07T11:46:07.874Z,1.10
2023-03-07T11:48:58.069Z,1.08
2023-03-07T11:51:30.680Z,1.00
2023-03-07T11:54:08.146Z,1.10
2023-03-07T11:56:38.316Z,1.10
2023-03-07T11:59:36.692Z,0.98
2023-03-07T12:02:28.151Z,0.90
2023-03-07T12:05:08.880Z,1.10
2023-03-07T12:08:07.526Z,1.00
2023-03-07T12:10:59.546Z,1.08
2023-03-07T12:13:38.878Z,1.00
2023-03-07T12:16:35.023Z,1.00
2023-03-07T12:19:19.235Z,1.00
2023-03-07T12:22:14.093Z,1.00
2023-03-07T12:24:57.175Z,1.00
2023-03-07T12:27:33.620Z,0.90
2023-03-07T12:30:05.600Z,1.00
2023-03-07T12:32:34.450Z,0.90
2023-03-07T12:35:24.200Z,1.10
2023-03-07T12:37:58.241Z,0.95
2023-03-07T12:40:40.643Z,1.10
2023-03-07T12:43:19.197Z,1.10
2023-03-07T12:45:50.638Z,1.00
2023-03-07T12:48:38.876Z,0.90
2023-03-07T12:51:19.363Z,0.80
2023-03-07T12:54:16.674Z,0.93
2023-03-07T12:57:07.236Z,1.00
2023-03-07T12:59:37.285Z,0.90
2023-03-07T13:02:17.177Z,0.90
2023-03-07T13:04:45.358Z,1.10
2023-03-07T13:07:15.397Z,1.00
2023-03-07T13:09:46.959Z,1.00
2023-03-07T13:12:17.018Z,1.00
2023-03-07T13:14:45.182Z,1.02
2023-03-07T13:17:14.053Z,1.10
2023-03-07T13:19:52.340Z,0.90
2023-03-07T13:22:19.982Z,0.90
2023-03-07T13:24:48.539Z,0.90
2023-03-07T13:27:21.385Z,0.90
2023-03-07T13:30:10.181Z,1.00
2023-03-07T13:32:55.425Z,1.00
2023-03-07T13:37:58.697Z,1.10
2023-03-07T13:40:33.311Z,1.00
2023-03-07T13:43:01.149Z,1.00
2023-03-07T13:45:37.870Z,1.10
2023-03-07T13:48:12.976Z,0.95
2023-03-07T13:53:49.012Z,0.90
2023-03-07T13:56:15.909Z,0.80
2023-03-07T13:59:12.727Z,0.88
2023-03-07T14:01:40.774Z,0.90
2023-03-07T14:04:36.987Z,0.90
2023-03-07T14:07:22.262Z,0.90
2023-03-07T14:09:56.157Z,1.00
2023-03-07T14:12:52.165Z,1.00
2023-03-07T14:15:34.668Z,1.00
2023-03-07T14:18:35.042Z,0.90
2023-03-07T14:21:16.521Z,0.93
2023-03-07T14:24:36.026Z,1.00
2023-03-07T14:27:12.864Z,0.90
2023-03-07T14:29:50.707Z,0.80
2023-03-07T14:32:28.331Z,0.90
2023-03-07T14:34:56.611Z,0.90
2023-03-07T14:37:26.692Z,0.93
2023-03-07T14:40:00.009Z,0.90
2023-03-07T14:42:49.186Z,0.75
2023-03-07T14:45:28.835Z,0.80
2023-03-07T14:48:04.861Z,0.88
2023-03-07T14:50:33.718Z,0.80
2023-03-07T14:53:05.496Z,0.90
2023-03-07T14:55:39.438Z,0.80
2023-03-07T14:58:32.517Z,0.90
2023-03-07T15:01:01.859Z,1.00
2023-03-07T15:03:29.328Z,0.88
2023-03-07T15:06:00.141Z,0.80
2023-03-07T15:08:35.467Z,1.00
2023-03-07T15:11:08.349Z,0.80
2023-03-07T15:13:45.959Z,0.85
2023-03-07T15:16:18.501Z,0.55
2023-03-07T15:18:58.853Z,1.00
2023-03-07T15:21:27.114Z,1.00
2023-03-07T15:23:56.638Z,0.90
2023-03-07T15:26:27.994Z,0.90
2023-03-07T15:29:05.872Z,1.00
2023-03-07T15:31:58.219Z,0.80
2023-03-07T15:34:37.410Z,0.90
2023-03-07T15:37:33.886Z,0.82
2023-03-07T15:40:03.380Z,0.95
2023-03-07T15:42:31.518Z,0.88
2023-03-07T15:45:02.872Z,0.90
2023-03-07T15:47:32.972Z,1.00
2023-03-07T15:50:04.411Z,0.80
2023-03-07T15:52:33.225Z,0.80
2023-03-07T15:55:02.169Z,0.80
2023-03-07T15:58:03.780Z,0.80
2023-03-07T16:00:36.787Z,0.80
2023-03-07T16:03:33.485Z,0.80
2023-03-07T16:06:01.440Z,1.00
2023-03-07T16:08:32.942Z,0.82
2023-03-07T16:11:03.380Z,0.90
2023-03-07T16:13:40.278Z,1.00
2023-03-07T16:16:13.431Z,0.85
2023-03-07T16:18:44.563Z,0.90
2023-03-07T16:21:15.678Z,0.80
2023-03-07T16:23:43.398Z,0.85
2023-03-07T16:26:22.140Z,0.70
2023-03-07T16:28:53.360Z,0.70
2023-03-07T16:31:21.354Z,0.90
2023-03-07T16:33:48.946Z,0.80
2023-03-07T16:36:16.068Z,0.70
2023-03-07T16:38:43.455Z,0.80
2023-03-07T16:41:17.103Z,1.00
2023-03-07T16:43:44.937Z,0.90
2023-03-07T16:46:15.078Z,0.60
2023-03-07T16:48:42.736Z,0.80
2023-03-07T16:51:21.921Z,0.80
2023-03-07T16:53:50.073Z,0.80
2023-03-07T16:56:25.380Z,0.82
2023-03-07T16:58:53.054Z,0.80
2023-03-07T17:01:20.109Z,0.90
2023-03-07T17:03:47.074Z,0.82
2023-03-07T17:06:16.695Z,0.90
2023-03-07T17:08:44.856Z,0.85
2023-03-07T17:11:25.689Z,0.90
2023-03-07T17:13:55.038Z,0.90
2023-03-07T17:16:22.190Z,0.88
2023-03-07T17:18:49.591Z,0.90
2023-03-07T17:21:20.897Z,0.90
2023-03-07T17:23:51.236Z,0.70
2023-03-07T17:26:39.567Z,0.90
2023-03-07T17:29:27.082Z,0.85
2023-03-07T17:31:54.183Z,0.90
2023-03-07T17:34:26.789Z,1.00
2023-03-07T17:36:55.088Z,0.80
2023-03-07T17:39:22.827Z,1.00
2023-03-07T17:41:51.178Z,1.00
2023-03-07T17:44:18.481Z,0.65
2023-03-07T17:46:45.530Z,0.70
2023-03-07T17:49:12.937Z,0.88
2023-03-07T17:51:40.216Z,0.90
2023-03-07T17:54:08.421Z,0.80
2023-03-07T17:56:36.700Z,0.80
2023-03-07T17:59:05.340Z,0.80
2023-03-07T18:01:34.328Z,0.90
2023-03-07T18:04:03.429Z,0.73
2023-03-07T18:06:34.407Z,0.80
2023-03-07T18:09:02.405Z,1.00
2023-03-07T18:11:29.489Z,0.77
2023-03-07T18:13:56.660Z,0.90
2023-03-07T18:16:24.085Z,0.80
2023-03-07T18:18:59.431Z,0.90
2023-03-07T18:21:30.054Z,0.73
2023-03-07T18:23:58.229Z,0.85
2023-03-07T18:26:25.618Z,0.65
2023-03-07T18:28:53.942Z,0.90
2023-03-07T18:31:25.276Z,0.90
2023-03-07T18:33:53.141Z,1.00
2023-03-07T18:36:22.201Z,0.70
2023-03-07T18:38:50.082Z,0.88
2023-03-07T18:41:22.400Z,0.60
2023-03-07T18:43:49.659Z,0.80
2023-03-07T18:46:23.411Z,0.90
2023-03-07T18:48:50.844Z,0.80
2023-03-07T18:51:26.802Z,0.82
2023-03-07T18:53:58.204Z,0.77
2023-03-07T18:56:26.240Z,0.93
2023-03-07T18:58:58.889Z,0.77
2023-03-07T19:01:28.976Z,1.08
2023-03-07T19:03:57.736Z,0.70
2023-03-07T19:06:27.687Z,0.90
2023-03-07T19:08:57.140Z,0.82
2023-03-07T19:11:24.183Z,0.85
2023-03-07T19:13:53.681Z,0.80
2023-03-07T19:16:26.790Z,0.80
2023-03-07T19:18:54.576Z,0.80
2023-03-07T19:21:23.696Z,0.77
2023-03-07T19:23:51.846Z,0.90
2023-03-07T19:26:20.421Z,0.90
2023-03-07T19:28:49.657Z,0.80
2023-03-07T19:31:19.620Z,0.90
2023-03-07T19:33:50.742Z,0.65
2023-03-07T19:36:27.393Z,0.73
2023-03-07T19:38:56.516Z,0.73
2023-03-07T19:41:25.851Z,0.70
2023-03-07T19:43:52.842Z,0.82
2023-03-07T19:46:23.545Z,0.60
2023-03-07T19:48:51.103Z,0.57
2023-03-07T19:51:23.003Z,0.88
2023-03-07T19:53:56.002Z,0.70
2023-03-07T19:56:29.937Z,0.77
2023-03-07T19:58:58.752Z,0.73
2023-03-07T20:01:29.446Z,0.70
2023-03-07T20:03:57.052Z,0.80
2023-03-07T20:06:29.988Z,0.80
2023-03-07T20:08:58.243Z,0.68
2023-03-07T20:11:27.594Z,0.63
2023-03-07T20:13:57.105Z,0.80
2023-03-07T20:16:29.014Z,0.60
2023-03-07T20:18:58.680Z,0.63
2023-03-07T20:21:28.773Z,0.70
2023-03-07T20:23:59.643Z,0.70
2023-03-07T20:26:35.422Z,0.70
2023-03-07T20:29:04.949Z,0.70
2023-03-07T20:31:36.362Z,0.70
2023-03-07T20:34:03.737Z,0.82
2023-03-07T20:36:33.783Z,0.60
2023-03-07T20:39:03.670Z,0.70
2023-03-07T20:41:32.110Z,0.70
2023-03-07T20:44:04.702Z,0.77
2023-03-07T20:46:32.779Z,0.77
2023-03-07T20:49:01.444Z,0.93
2023-03-07T20:51:37.968Z,0.70
2023-03-07T20:54:13.207Z,0.82
2023-03-07T20:56:40.677Z,0.85
2023-03-07T20:59:08.515Z,0.75
2023-03-07T21:01:44.781Z,0.70
2023-03-07T21:04:13.626Z,0.77
2023-03-07T21:06:47.915Z,0.73
2023-03-07T21:09:16.581Z,0.80
2023-03-07T21:11:49.180Z,0.70
2023-03-07T21:14:19.158Z,0.90
2023-03-07T21:16:46.315Z,0.75
2023-03-07T21:19:14.087Z,0.90
2023-03-07T21:21:41.709Z,0.80
2023-03-07T21:24:09.027Z,0.85
2023-03-07T21:26:36.669Z,0.70
2023-03-07T21:29:04.264Z,0.70
2023-03-07T21:31:43.918Z,0.90
2023-03-07T21:34:13.806Z,0.60
2023-03-07T21:36:40.724Z,0.80
2023-03-07T21:39:10.059Z,0.95
2023-03-07T21:41:37.317Z,0.90
2023-03-07T21:44:04.726Z,0.85
2023-03-07T21:46:31.664Z,0.90
2023-03-07T21:48:59.742Z,0.70
2023-03-07T21:51:29.592Z,0.80
2023-03-07T21:53:56.636Z,0.70
2023-03-07T21:56:24.067Z,1.00
2023-03-07T21:58:52.090Z,0.68
2023-03-07T22:01:25.562Z,0.88
2023-03-07T22:03:57.323Z,0.80
2023-03-07T22:06:25.464Z,0.70
2023-03-07T22:08:52.505Z,0.90
2023-03-07T22:11:19.557Z,1.00
2023-03-07T22:13:46.590Z,0.90
2023-03-07T22:16:16.389Z,0.80
2023-03-07T22:18:43.633Z,1.00
2023-03-07T22:21:14.721Z,0.93
2023-03-07T22:23:42.238Z,0.70
2023-03-07T22:26:10.946Z,0.68
2023-03-07T22:28:40.661Z,0.90
2023-03-07T22:31:12.768Z,1.00
2023-03-07T22:33:40.944Z,0.98
2023-03-07T22:36:11.121Z,0.90
2023-03-07T22:38:50.931Z,1.08
2023-03-07T22:41:18.428Z,0.90
2023-03-07T22:43:45.864Z,1.30
2023-03-07T22:46:13.219Z,0.98
2023-03-07T22:48:40.463Z,0.93
2023-03-07T22:51:17.275Z,1.00
2023-03-07T22:53:44.801Z,0.95
2023-03-07T22:56:20.377Z,1.13
2023-03-07T22:58:47.741Z,1.02
2023-03-07T23:01:23.203Z,1.00
2023-03-07T23:03:51.055Z,1.10
2023-03-07T23:06:18.471Z,1.13
2023-03-07T23:08:47.343Z,1.08
2023-03-07T23:11:14.730Z,1.17
2023-03-07T23:13:42.112Z,1.30
2023-03-07T23:16:18.023Z,1.23
2023-03-07T23:18:50.719Z,1.00
2023-03-07T23:21:20.916Z,1.30
2023-03-07T23:23:48.528Z,1.10
2023-03-07T23:26:32.874Z,1.13
2023-03-07T23:29:03.198Z,1.27
2023-03-07T23:31:33.415Z,1.02
2023-03-07T23:34:05.330Z,1.00
2023-03-07T23:36:32.944Z,1.10
2023-03-07T23:39:00.382Z,1.00
2023-03-07T23:41:27.988Z,1.10
2023-03-07T23:43:58.723Z,1.10
2023-03-07T23:46:26.516Z,1.38
2023-03-07T23:48:54.510Z,1.10
2023-03-07T23:51:22.054Z,1.08
2023-03-07T23:53:49.029Z,1.13
2023-03-07T23:56:16.229Z,1.25
2023-03-07T23:58:44.164Z,1.30
